createdAt,value
2022-08-26T00:00:21.671Z,50.35
2022-08-26T00:02:50.346Z,50.12
2022-08-26T00:05:19.111Z,50.23
2022-08-26T00:07:48.431Z,50.12
2022-08-26T00:10:17.456Z,50.07
2022-08-26T00:12:46.184Z,49.93
2022-08-26T00:15:16.481Z,50.01
2022-08-26T00:17:46.534Z,49.87
2022-08-26T00:20:18.816Z,49.75
2022-08-26T00:22:47.284Z,49.59
2022-08-26T00:25:17.303Z,49.71
2022-08-26T00:27:45.872Z,49.64
2022-08-26T00:30:17.064Z,49.68
2022-08-26T00:32:52.687Z,49.77
2022-08-26T00:35:22.732Z,49.70
2022-08-26T00:37:52.026Z,49.68
2022-08-26T00:40:25.489Z,49.55
2022-08-26T00:42:54.062Z,49.73
2022-08-26T00:45:23.096Z,49.61
2022-08-26T00:47:55.762Z,49.52
2022-08-26T00:50:27.816Z,49.58
2022-08-26T00:52:57.015Z,49.73
2022-08-26T00:55:37.827Z,49.60
2022-08-26T00:58:06.801Z,49.60
2022-08-26T01:00:36.672Z,49.42
2022-08-26T01:03:07.603Z,49.40
2022-08-26T01:05:41.659Z,49.51
2022-08-26T01:08:10.154Z,49.30
2022-08-26T01:10:38.691Z,49.26
2022-08-26T01:13:11.007Z,49.34
2022-08-26T01:15:44.290Z,49.23
2022-08-26T01:18:14.818Z,49.23
2022-08-26T01:20:52.208Z,49.43
2022-08-26T01:23:30.338Z,49.29
2022-08-26T01:26:06.386Z,49.38
2022-08-26T01:28:35.985Z,49.48
2022-08-26T01:31:05.941Z,49.32
2022-08-26T01:33:42.096Z,49.49
2022-08-26T01:36:11.920Z,49.50
2022-08-26T01:38:42.100Z,49.43
2022-08-26T01:41:16.162Z,49.39
2022-08-26T01:43:49.187Z,49.49
2022-08-26T01:46:17.894Z,49.58
2022-08-26T01:48:47.874Z,49.71
2022-08-26T01:51:20.990Z,49.85
2022-08-26T01:53:50.863Z,49.82
2022-08-26T01:56:19.962Z,49.85
2022-08-26T01:58:52.282Z,49.92
2022-08-26T02:01:21.192Z,50.01
2022-08-26T02:03:55.435Z,49.97
2022-08-26T02:06:24.022Z,49.89
2022-08-26T02:08:57.752Z,49.87
2022-08-26T02:11:26.291Z,49.99
2022-08-26T02:13:57.831Z,49.93
2022-08-26T02:16:27.868Z,49.74
2022-08-26T02:18:57.931Z,49.88
2022-08-26T02:21:26.883Z,49.87
2022-08-26T02:23:57.195Z,49.75
2022-08-26T02:26:27.094Z,49.73
2022-08-26T02:29:00.040Z,49.80
2022-08-26T02:31:30.131Z,49.69
2022-08-26T02:34:10.745Z,49.76
2022-08-26T02:36:39.569Z,49.32
2022-08-26T02:39:09.863Z,49.43
2022-08-26T02:41:45.319Z,49.39
2022-08-26T02:44:14.057Z,49.41
2022-08-26T02:46:46.024Z,49.52
2022-08-26T02:49:17.022Z,49.38
2022-08-26T02:51:45.961Z,49.39
2022-08-26T02:54:15.846Z,49.06
2022-08-26T02:56:44.537Z,49.06
2022-08-26T02:59:13.644Z,49.11
2022-08-26T03:01:42.638Z,49.08
2022-08-26T03:04:13.300Z,48.86
2022-08-26T03:06:43.607Z,48.90
2022-08-26T03:09:22.523Z,48.82
2022-08-26T03:11:52.103Z,48.76
2022-08-26T03:14:20.994Z,48.79
2022-08-26T03:16:51.907Z,48.69
2022-08-26T03:19:20.452Z,48.58
2022-08-26T03:21:48.913Z,48.65
2022-08-26T03:24:17.724Z,48.67
2022-08-26T03:26:52.209Z,48.50
2022-08-26T03:29:38.910Z,48.77
2022-08-26T03:32:07.724Z,48.73
2022-08-26T03:34:37.278Z,48.58
2022-08-26T03:37:07.484Z,48.78
2022-08-26T03:39:37.003Z,48.66
2022-08-26T03:42:07.397Z,48.56
2022-08-26T03:44:36.182Z,48.69
2022-08-26T03:47:10.535Z,48.38
2022-08-26T03:49:38.995Z,48.25
2022-08-26T03:52:07.796Z,48.25
2022-08-26T03:54:36.234Z,47.71
2022-08-26T03:57:06.253Z,47.68
2022-08-26T03:59:34.723Z,47.62
2022-08-26T04:02:03.568Z,47.50
2022-08-26T04:04:39.933Z,47.36
2022-08-26T04:07:08.878Z,47.21
2022-08-26T04:09:37.298Z,47.09
2022-08-26T04:12:08.500Z,46.98
2022-08-26T04:14:37.769Z,46.86
2022-08-26T04:17:07.558Z,46.73
2022-08-26T04:19:36.154Z,46.93
2022-08-26T04:22:04.737Z,46.67
2022-08-26T04:24:33.333Z,46.63
2022-08-26T04:27:03.465Z,46.62
2022-08-26T04:29:33.428Z,46.49
2022-08-26T04:32:05.290Z,46.55
2022-08-26T04:34:34.293Z,46.27
2022-08-26T04:37:02.800Z,46.31
2022-08-26T04:39:31.264Z,46.14
2022-08-26T04:42:00.366Z,45.91
2022-08-26T04:44:32.219Z,45.71
2022-08-26T04:47:00.678Z,45.51
2022-08-26T04:49:35.062Z,45.70
2022-08-26T04:52:05.100Z,45.51
2022-08-26T04:54:33.698Z,45.69
2022-08-26T04:57:02.531Z,45.43
2022-08-26T04:59:34.973Z,45.34
2022-08-26T05:02:07.128Z,45.36
2022-08-26T05:04:36.189Z,45.37
2022-08-26T05:07:05.982Z,45.23
2022-08-26T05:09:34.940Z,45.20
2022-08-26T05:12:04.975Z,45.23
2022-08-26T05:14:34.826Z,45.15
2022-08-26T05:17:03.952Z,45.12
2022-08-26T05:19:33.319Z,45.14
2022-08-26T05:22:01.826Z,45.25
2022-08-26T05:24:31.303Z,45.14
2022-08-26T05:26:59.842Z,44.84
2022-08-26T05:29:28.419Z,45.04
2022-08-26T05:31:58.711Z,45.02
2022-08-26T05:34:30.071Z,44.95
2022-08-26T05:36:58.877Z,44.79
2022-08-26T05:39:27.348Z,44.60
2022-08-26T05:41:55.792Z,44.90
2022-08-26T05:44:24.774Z,44.52
2022-08-26T05:46:53.370Z,45.08
2022-08-26T05:49:26.363Z,44.73
2022-08-26T05:51:55.101Z,45.22
2022-08-26T05:54:23.529Z,44.75
2022-08-26T05:56:52.333Z,44.83
2022-08-26T05:59:23.966Z,44.52
2022-08-26T06:01:53.488Z,44.62
2022-08-26T06:04:27.511Z,44.68
2022-08-26T06:06:56.516Z,45.13
2022-08-26T06:09:25.114Z,44.87
2022-08-26T06:11:53.661Z,45.45
2022-08-26T06:14:23.182Z,45.13
2022-08-26T06:16:51.686Z,44.96
2022-08-26T06:19:21.661Z,44.84
2022-08-26T06:21:54.246Z,45.20
2022-08-26T06:24:41.539Z,44.98
2022-08-26T06:27:13.847Z,44.19
2022-08-26T06:29:43.788Z,44.09
2022-08-26T06:32:12.945Z,43.78
2022-08-26T06:34:41.800Z,43.39
2022-08-26T06:37:11.611Z,44.03
2022-08-26T06:39:41.091Z,43.10
2022-08-26T06:42:11.058Z,43.21
2022-08-26T06:44:41.696Z,44.10
2022-08-26T06:47:13.240Z,44.74
2022-08-26T06:49:41.778Z,44.89
2022-08-26T06:52:14.139Z,45.07
2022-08-26T06:54:48.548Z,44.71
2022-08-26T06:57:21.098Z,45.09
2022-08-26T06:59:51.125Z,44.68
2022-08-26T07:02:20.750Z,45.06
2022-08-26T07:04:51.157Z,44.41
2022-08-26T07:07:21.625Z,44.35
2022-08-26T07:09:52.433Z,45.13
2022-08-26T07:12:21.499Z,44.56
2022-08-26T07:14:50.176Z,43.88
2022-08-26T07:17:19.421Z,43.81
2022-08-26T07:19:49.223Z,43.88
2022-08-26T07:22:20.496Z,43.30
2022-08-26T07:24:49.685Z,43.18
2022-08-26T07:27:18.210Z,43.42
2022-08-26T07:29:46.852Z,44.51
2022-08-26T07:32:16.145Z,44.99
2022-08-26T07:34:44.749Z,44.84
2022-08-26T07:37:13.211Z,44.88
2022-08-26T07:39:43.389Z,44.88
2022-08-26T07:42:13.376Z,45.07
2022-08-26T07:44:42.734Z,45.34
2022-08-26T07:47:24.860Z,45.48
2022-08-26T07:49:55.230Z,45.43
2022-08-26T07:52:26.679Z,45.56
2022-08-26T07:54:58.248Z,45.33
2022-08-26T07:57:27.186Z,45.60
2022-08-26T07:59:55.763Z,45.80
2022-08-26T08:02:24.373Z,45.62
2022-08-26T08:04:53.092Z,45.44
2022-08-26T08:07:38.317Z,45.39
2022-08-26T08:10:13.689Z,45.60
2022-08-26T08:12:42.512Z,45.86
2022-08-26T08:15:13.854Z,46.03
2022-08-26T08:17:42.926Z,45.73
2022-08-26T08:20:12.457Z,45.75
2022-08-26T08:22:41.100Z,45.82
2022-08-26T08:25:11.312Z,45.90
2022-08-26T08:27:40.818Z,46.30
2022-08-26T08:30:13.688Z,46.41
2022-08-26T08:32:43.672Z,46.06
2022-08-26T08:35:13.227Z,46.51
2022-08-26T08:37:42.577Z,46.23
2022-08-26T08:40:13.887Z,46.29
2022-08-26T08:42:47.172Z,45.93
2022-08-26T08:45:19.220Z,45.31
2022-08-26T08:47:50.578Z,45.77
2022-08-26T08:50:26.792Z,45.50
2022-08-26T08:53:13.451Z,45.12
2022-08-26T08:55:57.692Z,45.10
2022-08-26T08:58:36.563Z,45.28
2022-08-26T09:01:07.602Z,45.17
2022-08-26T09:03:46.418Z,45.16
2022-08-26T09:06:18.814Z,45.25
2022-08-26T09:08:50.079Z,45.15
2022-08-26T09:11:20.873Z,45.38
2022-08-26T09:13:51.962Z,44.78
2022-08-26T09:16:23.064Z,44.55
2022-08-26T09:19:06.575Z,44.79
2022-08-26T09:21:35.282Z,44.39
2022-08-26T09:24:03.961Z,44.67
2022-08-26T09:26:45.623Z,45.03
2022-08-26T09:29:22.244Z,45.05
2022-08-26T09:31:51.033Z,45.44
2022-08-26T09:34:22.233Z,46.47
2022-08-26T09:36:52.015Z,46.11
2022-08-26T09:39:33.521Z,46.12
2022-08-26T09:42:11.714Z,46.17
2022-08-26T09:44:57.746Z,45.41
2022-08-26T09:47:30.284Z,45.52
2022-08-26T09:50:09.852Z,45.08
2022-08-26T09:52:40.600Z,45.61
2022-08-26T09:55:14.612Z,45.88
2022-08-26T09:57:51.247Z,45.83
2022-08-26T10:00:30.600Z,45.95
2022-08-26T10:02:59.762Z,45.58
2022-08-26T10:05:36.084Z,45.90
2022-08-26T10:08:27.224Z,45.85
2022-08-26T10:10:57.403Z,45.57
2022-08-26T10:13:33.326Z,45.35
2022-08-26T10:16:10.756Z,44.77
2022-08-26T10:18:43.652Z,45.14
2022-08-26T10:21:15.122Z,45.19
2022-08-26T10:23:48.699Z,44.90
2022-08-26T10:26:20.698Z,45.19
2022-08-26T10:28:53.930Z,44.66
2022-08-26T10:31:28.579Z,44.84
2022-08-26T10:34:00.165Z,45.31
2022-08-26T10:37:16.828Z,44.98
2022-08-26T10:39:42.743Z,44.79
2022-08-26T10:42:18.354Z,45.04
2022-08-26T10:44:48.184Z,44.59
2022-08-26T10:47:19.638Z,44.26
2022-08-26T10:49:58.695Z,44.34
2022-08-26T10:53:01.323Z,43.83
2022-08-26T10:55:36.323Z,42.63
2022-08-26T10:58:39.293Z,42.92
2022-08-26T11:01:33.390Z,43.64
2022-08-26T11:04:07.332Z,43.78
2022-08-26T11:06:36.961Z,43.44
2022-08-26T11:09:07.526Z,42.41
2022-08-26T11:11:48.870Z,42.03
2022-08-26T11:14:53.241Z,41.51
2022-08-26T11:18:01.865Z,40.20
2022-08-26T11:20:36.154Z,38.39
2022-08-26T11:23:40.438Z,38.10
2022-08-26T11:26:35.467Z,38.71
2022-08-26T11:29:12.897Z,38.68
2022-08-26T11:31:56.345Z,38.97
2022-08-26T11:34:56.349Z,42.01
2022-08-26T11:37:33.102Z,40.43
2022-08-26T11:40:03.984Z,39.82
2022-08-26T11:42:37.628Z,39.70
2022-08-26T11:45:19.408Z,40.15
2022-08-26T11:47:49.258Z,39.65
2022-08-26T11:50:23.567Z,39.71
2022-08-26T11:53:01.649Z,39.57
2022-08-26T11:55:30.384Z,40.01
2022-08-26T11:58:00.891Z,40.20
2022-08-26T12:00:33.733Z,39.91
2022-08-26T12:03:06.880Z,40.20
2022-08-26T12:05:43.360Z,39.74
2022-08-26T12:08:16.343Z,39.94
2022-08-26T12:10:45.586Z,39.95
2022-08-26T12:13:22.627Z,39.85
2022-08-26T12:15:55.819Z,40.06
2022-08-26T12:18:28.827Z,39.85
2022-08-26T12:21:00.894Z,39.72
2022-08-26T12:23:40.422Z,39.03
2022-08-26T12:26:11.569Z,39.83
2022-08-26T12:28:47.120Z,39.01
2022-08-26T12:31:24.010Z,38.80
2022-08-26T12:33:53.354Z,38.54
2022-08-26T12:36:28.636Z,38.47
2022-08-26T12:38:58.650Z,38.25
2022-08-26T12:41:49.732Z,38.32
2022-08-26T12:44:39.303Z,38.58
2022-08-26T12:47:10.687Z,38.49
2022-08-26T12:49:39.698Z,38.26
2022-08-26T12:52:30.119Z,38.27
2022-08-26T12:55:00.528Z,38.20
2022-08-26T12:57:32.064Z,37.88
2022-08-26T13:00:35.795Z,37.63
2022-08-26T13:03:04.676Z,37.11
2022-08-26T13:05:35.643Z,38.22
2022-08-26T13:08:16.865Z,37.40
2022-08-26T13:10:47.668Z,38.86
2022-08-26T13:13:16.219Z,38.28
2022-08-26T13:15:44.858Z,38.66
2022-08-26T13:18:13.340Z,38.31
2022-08-26T13:20:44.947Z,37.73
2022-08-26T13:23:15.310Z,37.84
2022-08-26T13:25:44.671Z,37.85
2022-08-26T13:28:13.229Z,37.64
2022-08-26T13:30:41.966Z,38.62
2022-08-26T13:33:12.034Z,37.38
2022-08-26T13:35:40.830Z,38.27
2022-08-26T13:38:30.888Z,38.77
2022-08-26T13:41:04.229Z,40.02
2022-08-26T13:43:32.843Z,40.17
2022-08-26T13:46:02.055Z,39.39
2022-08-26T13:48:30.576Z,40.41
2022-08-26T13:50:59.288Z,39.08
2022-08-26T13:53:29.582Z,40.25
2022-08-26T13:55:58.454Z,40.58
2022-08-26T13:58:28.898Z,39.59
2022-08-26T14:00:58.820Z,39.94
2022-08-26T14:03:28.214Z,41.03
2022-08-26T14:05:56.902Z,40.91
2022-08-26T14:08:27.316Z,39.59
2022-08-26T14:10:55.947Z,39.49
2022-08-26T14:13:24.610Z,39.13
2022-08-26T14:15:54.535Z,38.97
2022-08-26T14:18:26.337Z,38.73
2022-08-26T14:20:56.857Z,38.82
2022-08-26T14:23:26.192Z,38.76
2022-08-26T14:25:54.808Z,38.86
2022-08-26T14:28:23.354Z,39.13
2022-08-26T14:30:55.996Z,39.05
2022-08-26T14:33:26.739Z,38.93
2022-08-26T14:36:15.750Z,38.70
2022-08-26T14:38:44.299Z,38.66
2022-08-26T14:41:12.875Z,38.96
2022-08-26T14:43:42.491Z,38.70
2022-08-26T14:46:12.415Z,39.76
2022-08-26T14:48:41.885Z,38.82
2022-08-26T14:51:10.445Z,38.57
2022-08-26T14:53:56.583Z,38.39
2022-08-26T14:56:25.311Z,39.86
2022-08-26T14:58:53.780Z,38.56
2022-08-26T15:01:24.873Z,38.62
2022-08-26T15:03:56.718Z,38.67
2022-08-26T15:06:25.266Z,38.64
2022-08-26T15:08:53.814Z,38.42
2022-08-26T15:11:22.644Z,38.34
2022-08-26T15:13:51.148Z,38.06
2022-08-26T15:16:19.675Z,38.16
2022-08-26T15:18:51.456Z,38.60
2022-08-26T15:21:20.324Z,38.69
2022-08-26T15:23:48.835Z,38.31
2022-08-26T15:26:18.057Z,38.38
2022-08-26T15:28:48.085Z,38.36
2022-08-26T15:31:16.774Z,38.09
2022-08-26T15:33:45.811Z,38.62
2022-08-26T15:36:16.002Z,38.08
2022-08-26T15:38:44.614Z,38.26
2022-08-26T15:41:14.404Z,38.23
2022-08-26T15:43:42.941Z,37.98
2022-08-26T15:46:12.332Z,38.10
2022-08-26T15:48:40.958Z,37.96
2022-08-26T15:51:09.627Z,37.86
2022-08-26T15:53:39.515Z,37.71
2022-08-26T15:56:08.480Z,38.26
2022-08-26T15:58:37.455Z,38.12
2022-08-26T16:01:06.365Z,38.10
2022-08-26T16:03:34.873Z,38.30
2022-08-26T16:06:03.900Z,38.22
2022-08-26T16:08:36.531Z,38.29
2022-08-26T16:11:07.112Z,38.48
2022-08-26T16:13:39.922Z,38.21
2022-08-26T16:16:09.150Z,38.41
2022-08-26T16:18:37.728Z,38.49
2022-08-26T16:21:13.438Z,38.76
2022-08-26T16:23:44.988Z,38.33
2022-08-26T16:26:17.871Z,38.28
2022-08-26T16:28:46.625Z,39.05
2022-08-26T16:31:15.201Z,38.99
2022-08-26T16:33:43.910Z,38.63
2022-08-26T16:36:12.684Z,39.08
2022-08-26T16:38:41.655Z,39.19
2022-08-26T16:41:10.564Z,40.35
2022-08-26T16:43:40.680Z,40.41
2022-08-26T16:46:11.333Z,39.59
2022-08-26T16:48:40.102Z,38.65
2022-08-26T16:51:12.565Z,38.14
2022-08-26T16:53:41.167Z,37.95
2022-08-26T16:56:13.787Z,37.41
2022-08-26T16:58:43.776Z,37.24
2022-08-26T17:01:12.447Z,36.94
2022-08-26T17:03:41.012Z,36.85
2022-08-26T17:06:10.629Z,37.01
2022-08-26T17:08:39.511Z,36.81
2022-08-26T17:11:08.654Z,37.01
2022-08-26T17:13:38.154Z,37.16
2022-08-26T17:16:09.927Z,36.65
2022-08-26T17:18:38.598Z,37.21
2022-08-26T17:21:09.962Z,36.69
2022-08-26T17:23:38.664Z,37.33
2022-08-26T17:26:07.539Z,37.04
2022-08-26T17:28:35.957Z,37.02
2022-08-26T17:31:05.284Z,37.13
2022-08-26T17:33:35.153Z,37.71
2022-08-26T17:36:04.345Z,37.80
2022-08-26T17:38:32.933Z,38.19
2022-08-26T17:41:01.399Z,38.14
2022-08-26T17:43:30.022Z,38.67
2022-08-26T17:46:06.991Z,38.95
2022-08-26T17:48:38.082Z,38.72
2022-08-26T17:51:11.123Z,38.87
2022-08-26T17:53:39.932Z,38.52
2022-08-26T17:56:09.192Z,38.16
2022-08-26T17:58:38.863Z,38.66
2022-08-26T18:01:08.208Z,38.36
2022-08-26T18:03:38.384Z,38.50
2022-08-26T18:06:10.407Z,38.47
2022-08-26T18:08:39.027Z,38.70
2022-08-26T18:11:10.261Z,38.94
2022-08-26T18:13:38.865Z,38.87
2022-08-26T18:16:16.061Z,38.79
2022-08-26T18:18:46.567Z,38.88
2022-08-26T18:21:17.059Z,39.04
2022-08-26T18:23:45.820Z,39.04
2022-08-26T18:26:18.399Z,39.00
2022-08-26T18:28:46.892Z,39.01
2022-08-26T18:31:16.371Z,39.25
2022-08-26T18:33:46.390Z,39.05
2022-08-26T18:36:19.622Z,39.46
2022-08-26T18:38:48.441Z,39.04
2022-08-26T18:41:20.797Z,39.41
2022-08-26T18:43:50.591Z,39.38
2022-08-26T18:46:20.049Z,39.75
2022-08-26T18:48:51.105Z,40.06
2022-08-26T18:51:21.007Z,39.35
2022-08-26T18:53:49.541Z,40.17
2022-08-26T18:56:18.700Z,39.78
2022-08-26T18:58:47.583Z,40.08
2022-08-26T19:01:16.770Z,40.06
2022-08-26T19:03:45.539Z,39.96
2022-08-26T19:06:20.022Z,40.33
2022-08-26T19:08:49.945Z,40.30
2022-08-26T19:11:30.114Z,40.15
2022-08-26T19:14:01.699Z,40.46
2022-08-26T19:16:30.594Z,40.15
2022-08-26T19:19:00.761Z,40.09
2022-08-26T19:21:30.874Z,40.61
2022-08-26T19:23:59.999Z,40.02
2022-08-26T19:26:28.771Z,40.08
2022-08-26T19:28:57.398Z,39.50
2022-08-26T19:31:26.216Z,39.46
2022-08-26T19:33:56.860Z,39.61
2022-08-26T19:36:26.204Z,39.64
2022-08-26T19:38:56.817Z,39.44
2022-08-26T19:41:36.802Z,39.91
2022-08-26T19:44:11.549Z,39.23
2022-08-26T19:46:40.232Z,40.00
2022-08-26T19:49:08.717Z,39.90
2022-08-26T19:51:37.870Z,40.02
2022-08-26T19:54:07.852Z,40.22
2022-08-26T19:56:36.729Z,40.51
2022-08-26T19:59:05.208Z,40.22
2022-08-26T20:01:33.799Z,40.12
2022-08-26T20:04:02.934Z,40.30
2022-08-26T20:06:31.637Z,40.32
2022-08-26T20:09:00.145Z,40.63
2022-08-26T20:11:29.992Z,40.32
2022-08-26T20:13:59.808Z,40.24
2022-08-26T20:16:29.822Z,40.41
2022-08-26T20:19:27.680Z,40.58
2022-08-26T20:21:56.198Z,40.64
2022-08-26T20:24:26.516Z,40.68
2022-08-26T20:26:56.944Z,40.30
2022-08-26T20:29:25.502Z,40.31
2022-08-26T20:31:54.774Z,40.48
2022-08-26T20:34:23.316Z,40.61
2022-08-26T20:36:52.044Z,40.42
2022-08-26T20:39:21.202Z,40.49
2022-08-26T20:41:49.968Z,40.30
2022-08-26T20:44:19.958Z,40.22
2022-08-26T20:46:48.437Z,40.16
2022-08-26T20:49:18.197Z,40.20
2022-08-26T20:51:51.605Z,40.05
2022-08-26T20:54:23.922Z,40.28
2022-08-26T20:56:54.871Z,40.49
2022-08-26T20:59:24.772Z,40.35
2022-08-26T21:01:53.378Z,40.58
2022-08-26T21:04:23.343Z,40.59
2022-08-26T21:06:53.080Z,40.77
2022-08-26T21:09:22.436Z,39.83
2022-08-26T21:11:51.229Z,39.99
2022-08-26T21:14:20.655Z,39.81
2022-08-26T21:16:50.783Z,40.09
2022-08-26T21:19:19.955Z,39.99
2022-08-26T21:21:48.963Z,39.94
2022-08-26T21:24:17.657Z,40.57
2022-08-26T21:26:46.183Z,40.86
2022-08-26T21:29:14.753Z,40.42
2022-08-26T21:31:46.349Z,40.30
2022-08-26T21:34:17.945Z,40.83
2022-08-26T21:36:46.802Z,40.51
2022-08-26T21:39:15.410Z,40.92
2022-08-26T21:41:44.491Z,40.84
2022-08-26T21:44:13.678Z,40.91
2022-08-26T21:46:42.480Z,41.16
2022-08-26T21:49:14.979Z,41.22
2022-08-26T21:51:46.469Z,41.18
2022-08-26T21:54:15.167Z,41.27
2022-08-26T21:56:46.802Z,41.19
2022-08-26T21:59:16.634Z,41.13
2022-08-26T22:01:45.210Z,41.41
2022-08-26T22:04:13.729Z,41.29
2022-08-26T22:06:45.797Z,41.37
2022-08-26T22:09:15.074Z,41.41
2022-08-26T22:11:44.151Z,41.38
2022-08-26T22:14:12.671Z,41.42
2022-08-26T22:16:41.212Z,41.39
2022-08-26T22:19:20.146Z,41.28
2022-08-26T22:21:50.942Z,41.38
2022-08-26T22:24:19.884Z,40.93
2022-08-26T22:26:48.671Z,40.96
2022-08-26T22:29:17.494Z,40.92
2022-08-26T22:31:46.243Z,41.01
2022-08-26T22:34:17.494Z,41.13
2022-08-26T22:36:48.457Z,41.11
2022-08-26T22:39:22.779Z,41.11
2022-08-26T22:41:51.541Z,41.11
2022-08-26T22:44:20.720Z,41.12
2022-08-26T22:46:49.948Z,41.06
2022-08-26T22:49:18.525Z,41.23
2022-08-26T22:51:47.107Z,41.21
2022-08-26T22:54:17.372Z,41.56
2022-08-26T22:56:46.283Z,41.58
2022-08-26T22:59:16.286Z,41.11
2022-08-26T23:01:44.937Z,41.04
2022-08-26T23:04:13.615Z,41.03
2022-08-26T23:06:47.490Z,40.92
2022-08-26T23:09:18.402Z,40.97
2022-08-26T23:11:47.862Z,41.12
2022-08-26T23:14:17.055Z,40.79
2022-08-26T23:16:45.658Z,40.84
2022-08-26T23:19:14.954Z,40.80
2022-08-26T23:21:43.536Z,40.69
2022-08-26T23:24:12.146Z,41.00
2022-08-26T23:26:42.591Z,40.58
2022-08-26T23:29:12.849Z,40.52
2022-08-26T23:31:42.186Z,40.66
2022-08-26T23:34:29.378Z,40.54
2022-08-26T23:36:59.090Z,41.08
2022-08-26T23:39:28.619Z,40.89
2022-08-26T23:41:58.712Z,40.73
2022-08-26T23:44:28.335Z,40.77
2022-08-26T23:46:56.936Z,40.78
2022-08-26T23:49:25.601Z,40.78
2022-08-26T23:52:12.045Z,39.96
2022-08-26T23:54:41.063Z,40.75
2022-08-26T23:57:11.211Z,40.78
2022-08-26T23:59:39.977Z,40.45
